createdAt,value
2022-12-31T00:00:20.079Z,99876.09
2022-12-31T00:05:24.192Z,99872.13
2022-12-31T00:10:27.621Z,99879.75
2022-12-31T00:15:32.532Z,99893.50
2022-12-31T00:20:36.508Z,99884.06
2022-12-31T00:25:39.931Z,99886.25
2022-12-31T00:30:44.737Z,99891.22
2022-12-31T00:35:48.133Z,99895.75
2022-12-31T00:40:51.633Z,99899.41
2022-12-31T00:45:56.595Z,99899.88
2022-12-31T00:51:00.714Z,99897.28
2022-12-31T00:56:07.036Z,99898.34
2022-12-31T01:01:13.115Z,99909.72
2022-12-31T01:06:16.817Z,99908.53
2022-12-31T01:11:22.734Z,99910.69
2022-12-31T01:16:29.638Z,99915.59
2022-12-31T01:21:33.953Z,99898.34
2022-12-31T01:26:38.195Z,99901.81
2022-12-31T01:31:43.094Z,99904.44
2022-12-31T01:36:46.649Z,99903.50
2022-12-31T01:41:51.030Z,99909.59
2022-12-31T01:46:58.370Z,99908.03
2022-12-31T01:52:08.880Z,99903.56
2022-12-31T01:57:13.186Z,99908.72
2022-12-31T02:02:18.576Z,99902.63
2022-12-31T02:07:22.649Z,99904.41
2022-12-31T02:12:26.102Z,99906.78
2022-12-31T02:17:58.303Z,99910.47
2022-12-31T02:23:34.617Z,99919.03
2022-12-31T02:28:57.909Z,99917.44
2022-12-31T02:34:08.946Z,99921.03
2022-12-31T02:39:14.097Z,99922.47
2022-12-31T02:44:24.369Z,99919.75
2022-12-31T02:49:36.664Z,99922.72
2022-12-31T02:54:49.804Z,99920.19
2022-12-31T03:00:16.541Z,99919.13
2022-12-31T03:05:26.419Z,99928.41
2022-12-31T03:10:29.952Z,99929.09
2022-12-31T03:15:35.251Z,99934.63
2022-12-31T03:20:58.910Z,99936.28
2022-12-31T03:26:03.001Z,99936.66
2022-12-31T03:31:07.223Z,99937.78
2022-12-31T03:36:14.709Z,99945.81
2022-12-31T03:41:18.119Z,99943.13
2022-12-31T03:46:21.580Z,99954.84
2022-12-31T03:51:26.483Z,99949.91
2022-12-31T03:56:29.954Z,99949.84
2022-12-31T04:01:33.495Z,99943.34
2022-12-31T04:06:38.382Z,99951.78
2022-12-31T04:11:42.120Z,99953.34
2022-12-31T04:16:46.048Z,99952.75
2022-12-31T04:21:51.288Z,99958.03
2022-12-31T04:26:54.738Z,99968.84
2022-12-31T04:31:58.123Z,99973.19
2022-12-31T04:37:03.510Z,99968.75
2022-12-31T04:42:07.040Z,99968.88
2022-12-31T04:47:10.733Z,99981.78
2022-12-31T04:52:15.883Z,99996.03
2022-12-31T04:57:19.294Z,99998.38
2022-12-31T05:02:22.795Z,100003.19
2022-12-31T05:07:27.745Z,100005.19
2022-12-31T05:12:31.195Z,100012.13
2022-12-31T05:17:34.606Z,100011.09
2022-12-31T05:22:39.443Z,100009.59
2022-12-31T05:27:42.977Z,100016.28
2022-12-31T05:32:47.416Z,100019.66
2022-12-31T05:37:52.506Z,100028.47
2022-12-31T05:42:56.254Z,100024.69
2022-12-31T05:47:59.757Z,100024.66
2022-12-31T05:53:04.599Z,100037.00
2022-12-31T05:58:07.980Z,100040.88
2022-12-31T06:03:12.031Z,100046.22
2022-12-31T06:08:16.977Z,100051.56
2022-12-31T06:13:20.374Z,100053.44
2022-12-31T06:18:23.864Z,100068.78
2022-12-31T06:23:28.762Z,100070.88
2022-12-31T06:28:32.233Z,100071.78
2022-12-31T06:33:36.592Z,100067.72
2022-12-31T06:38:43.269Z,100069.91
2022-12-31T06:43:47.193Z,100077.69
2022-12-31T06:48:50.666Z,100076.41
2022-12-31T06:53:55.498Z,100089.50
2022-12-31T06:58:59.462Z,100077.66
2022-12-31T07:04:14.154Z,100076.75
2022-12-31T07:09:25.387Z,100089.69
2022-12-31T07:14:37.552Z,100096.69
2022-12-31T07:19:57.123Z,100115.66
2022-12-31T07:25:03.635Z,100116.69
2022-12-31T07:30:12.698Z,100131.69
2022-12-31T07:35:23.189Z,100133.00
2022-12-31T07:40:39.628Z,100141.06
2022-12-31T07:45:49.536Z,100135.31
2022-12-31T07:50:55.400Z,100145.38
2022-12-31T07:56:02.152Z,100143.06
2022-12-31T08:01:06.692Z,100141.78
2022-12-31T08:06:17.321Z,100147.41
2022-12-31T08:11:29.844Z,100152.06
2022-12-31T08:16:33.880Z,100155.94
2022-12-31T08:21:47.620Z,100151.94
2022-12-31T08:27:03.254Z,100156.69
2022-12-31T08:32:14.467Z,100149.09
2022-12-31T08:37:28.763Z,100138.94
2022-12-31T08:42:41.399Z,100132.44
2022-12-31T08:47:57.983Z,100135.22
2022-12-31T08:53:03.783Z,100143.22
2022-12-31T08:58:21.680Z,100131.13
2022-12-31T09:03:50.594Z,100126.94
2022-12-31T09:09:02.733Z,100120.16
2022-12-31T09:14:27.001Z,100114.06
2022-12-31T09:19:30.452Z,100111.44
2022-12-31T09:24:34.818Z,100101.69
2022-12-31T09:29:56.743Z,100105.75
2022-12-31T09:35:07.563Z,100097.53
2022-12-31T09:40:41.860Z,100087.88
2022-12-31T09:46:23.409Z,100085.81
2022-12-31T09:51:33.848Z,100085.53
2022-12-31T09:56:38.458Z,100089.75
2022-12-31T10:01:51.854Z,100082.25
2022-12-31T10:07:09.567Z,100078.72
2022-12-31T10:12:49.186Z,100075.34
2022-12-31T10:18:05.228Z,100062.44
2022-12-31T10:23:35.109Z,100056.56
2022-12-31T10:28:50.351Z,100052.84
2022-12-31T10:34:07.508Z,100047.25
2022-12-31T10:39:25.243Z,100039.59
2022-12-31T10:45:22.096Z,100043.44
2022-12-31T10:50:55.366Z,100036.25
2022-12-31T10:56:39.822Z,100023.75
2022-12-31T11:01:50.055Z,100025.53
2022-12-31T11:07:30.658Z,100024.34
2022-12-31T11:13:12.866Z,100042.03
2022-12-31T11:18:27.196Z,100030.31
2022-12-31T11:29:05.712Z,100028.81
2022-12-31T14:30:47.185Z,100100.94
2022-12-31T14:36:14.195Z,100100.94
2022-12-31T14:41:33.297Z,100112.22
2022-12-31T14:46:48.904Z,100116.44
2022-12-31T14:51:52.633Z,100124.13
2022-12-31T14:56:56.109Z,100129.94
2022-12-31T15:02:01.044Z,100135.75
2022-12-31T15:07:13.185Z,100140.94
2022-12-31T15:12:30.453Z,100144.13
2022-12-31T15:17:49.489Z,100153.06
2022-12-31T15:22:54.403Z,100159.66
2022-12-31T15:28:00.325Z,100164.00
2022-12-31T15:33:10.122Z,100177.53
2022-12-31T15:38:32.805Z,100173.59
2022-12-31T15:43:42.667Z,100171.66
2022-12-31T15:48:56.552Z,100179.19
2022-12-31T15:54:01.486Z,100180.56
2022-12-31T15:59:12.643Z,100183.50
2022-12-31T16:04:21.196Z,100175.56
2022-12-31T16:09:27.257Z,100173.31
2022-12-31T16:14:37.230Z,100167.88
2022-12-31T16:19:46.259Z,100180.03
2022-12-31T16:25:29.043Z,100189.31
2022-12-31T16:30:22.534Z,100189.94
2022-12-31T16:35:29.897Z,100190.91
2022-12-31T16:40:33.338Z,100201.97
2022-12-31T16:45:38.792Z,100199.31
2022-12-31T16:50:46.711Z,100193.97
2022-12-31T16:55:56.465Z,100192.91
2022-12-31T17:01:09.048Z,100198.00
2022-12-31T17:06:18.226Z,100194.75
2022-12-31T17:11:25.799Z,100196.69
2022-12-31T17:16:29.429Z,100203.03
2022-12-31T17:21:35.068Z,100209.13
2022-12-31T17:26:39.993Z,100212.03
2022-12-31T17:32:00.123Z,100216.28
2022-12-31T17:37:18.474Z,100203.50
2022-12-31T17:42:32.096Z,100209.63
2022-12-31T17:47:37.855Z,100212.47
2022-12-31T17:52:42.708Z,100218.78
2022-12-31T17:57:51.921Z,100210.31
2022-12-31T18:02:55.475Z,100209.03
2022-12-31T18:08:00.685Z,100214.38
2022-12-31T18:13:05.965Z,100215.13
2022-12-31T18:18:24.468Z,100205.28
2022-12-31T18:23:32.572Z,100215.03
2022-12-31T18:28:36.261Z,100221.34
2022-12-31T18:33:39.634Z,100224.94
2022-12-31T18:38:44.747Z,100226.97
2022-12-31T18:43:48.947Z,100231.56
2022-12-31T18:48:52.588Z,100234.88
2022-12-31T18:53:57.833Z,100242.03
2022-12-31T18:59:02.645Z,100234.78
2022-12-31T19:04:13.690Z,100243.25
2022-12-31T19:09:44.114Z,100247.16
2022-12-31T19:14:42.270Z,100250.47
2022-12-31T19:19:45.695Z,100247.81
2022-12-31T19:24:50.488Z,100245.88
2022-12-31T19:29:53.863Z,100252.09
2022-12-31T19:34:57.474Z,100252.59
2022-12-31T19:40:02.424Z,100247.88
2022-12-31T19:45:07.923Z,100241.31
2022-12-31T19:50:16.693Z,100255.03
2022-12-31T19:55:25.143Z,100254.13
2022-12-31T20:00:28.598Z,100244.09
2022-12-31T20:05:32.061Z,100250.72
2022-12-31T20:10:38.004Z,100241.22
2022-12-31T20:15:47.799Z,100231.75
2022-12-31T20:20:55.768Z,100231.16
2022-12-31T20:26:01.688Z,100235.75
2022-12-31T20:31:07.148Z,100235.06
2022-12-31T20:36:14.182Z,100237.81
2022-12-31T20:41:20.633Z,100228.47
2022-12-31T20:46:25.975Z,100231.22
2022-12-31T20:51:31.287Z,100242.59
2022-12-31T20:56:38.533Z,100241.09
2022-12-31T21:02:19.353Z,100238.72
2022-12-31T21:07:05.795Z,100238.88
2022-12-31T21:12:30.110Z,100255.66
2022-12-31T21:17:33.884Z,100257.66
2022-12-31T21:22:37.624Z,100248.94
2022-12-31T21:27:42.450Z,100256.81
2022-12-31T21:32:46.265Z,100258.75
2022-12-31T21:37:58.119Z,100263.44
2022-12-31T21:43:05.194Z,100258.38
2022-12-31T21:48:25.168Z,100260.69
2022-12-31T21:53:36.302Z,100263.88
2022-12-31T21:58:44.009Z,100261.81
2022-12-31T22:03:47.960Z,100259.81
2022-12-31T22:08:53.262Z,100254.38
2022-12-31T22:13:58.750Z,100256.19
2022-12-31T22:19:02.215Z,100255.22
2022-12-31T22:24:05.900Z,100246.59
2022-12-31T22:29:10.796Z,100240.66
2022-12-31T22:34:14.445Z,100236.50
2022-12-31T22:39:43.875Z,100245.13
2022-12-31T22:44:42.765Z,100242.31
2022-12-31T22:49:46.687Z,100238.47
2022-12-31T22:54:50.165Z,100229.59
2022-12-31T22:59:55.066Z,100236.28
2022-12-31T23:05:15.931Z,100240.75
2022-12-31T23:10:51.790Z,100233.97
2022-12-31T23:16:14.188Z,100239.06
2022-12-31T23:21:34.848Z,100238.06
2022-12-31T23:26:38.277Z,100238.53
2022-12-31T23:31:43.176Z,100238.28
2022-12-31T23:36:46.647Z,100242.84
2022-12-31T23:41:50.081Z,100242.03
2022-12-31T23:46:55.349Z,100254.09
2022-12-31T23:51:59.284Z,100247.34
2022-12-31T23:57:02.699Z,100259.47
